sensor_id;sensor_type;location;lat;lon;timestamp;pressure;altitude;pressure_sealevel;temperature;humidity
8294;BME280;4185;41.506;24.938;2024-02-21T00:02:26;94096.88;;;4.18;96.32
8294;BME280;4185;41.506;24.938;2024-02-21T00:04:53;94100.59;;;4.08;95.96
8294;BME280;4185;41.506;24.938;2024-02-21T00:07:20;94111.34;;;3.95;96.20
8294;BME280;4185;41.506;24.938;2024-02-21T00:09:46;94108.53;;;3.86;97.00
8294;BME280;4185;41.506;24.938;2024-02-21T00:12:14;94108.31;;;3.81;96.56
8294;BME280;4185;41.506;24.938;2024-02-21T00:14:41;94103.47;;;3.75;97.02
8294;BME280;4185;41.506;24.938;2024-02-21T00:17:07;94112.72;;;3.74;97.41
8294;BME280;4185;41.506;24.938;2024-02-21T00:19:36;94105.84;;;3.73;97.16
8294;BME280;4185;41.506;24.938;2024-02-21T00:22:03;94111.22;;;3.73;97.92
8294;BME280;4185;41.506;24.938;2024-02-21T00:24:30;94115.28;;;3.78;97.60
8294;BME280;4185;41.506;24.938;2024-02-21T00:26:57;94117.13;;;3.81;98.12
8294;BME280;4185;41.506;24.938;2024-02-21T00:29:23;94116.25;;;3.84;97.39
8294;BME280;4185;41.506;24.938;2024-02-21T00:31:51;94120.72;;;3.91;97.31
8294;BME280;4185;41.506;24.938;2024-02-21T00:34:17;94119.50;;;3.92;96.65
8294;BME280;4185;41.506;24.938;2024-02-21T00:36:45;94118.03;;;3.91;97.00
8294;BME280;4185;41.506;24.938;2024-02-21T00:39:12;94121.97;;;3.86;96.35
8294;BME280;4185;41.506;24.938;2024-02-21T00:41:39;94125.41;;;3.87;96.19
8294;BME280;4185;41.506;24.938;2024-02-21T00:44:05;94118.94;;;3.84;96.96
8294;BME280;4185;41.506;24.938;2024-02-21T00:46:32;94125.50;;;3.83;96.73
8294;BME280;4185;41.506;24.938;2024-02-21T00:48:59;94118.75;;;3.79;96.53
8294;BME280;4185;41.506;24.938;2024-02-21T00:51:26;94126.38;;;3.80;97.19
8294;BME280;4185;41.506;24.938;2024-02-21T00:53:54;94123.44;;;3.74;97.28
8294;BME280;4185;41.506;24.938;2024-02-21T00:56:21;94122.69;;;3.74;97.80
8294;BME280;4185;41.506;24.938;2024-02-21T00:58:47;94131.19;;;3.72;97.84
8294;BME280;4185;41.506;24.938;2024-02-21T01:01:21;94110.44;;;3.73;97.86
8294;BME280;4185;41.506;24.938;2024-02-21T01:03:47;94114.72;;;3.70;98.05
8294;BME280;4185;41.506;24.938;2024-02-21T01:06:14;94110.97;;;3.68;97.38
8294;BME280;4185;41.506;24.938;2024-02-21T01:08:41;94098.94;;;3.60;97.98
8294;BME280;4185;41.506;24.938;2024-02-21T01:11:09;94109.66;;;3.60;98.05
8294;BME280;4185;41.506;24.938;2024-02-21T01:13:35;94113.94;;;3.57;98.14
8294;BME280;4185;41.506;24.938;2024-02-21T01:16:02;94108.66;;;3.54;98.96
8294;BME280;4185;41.506;24.938;2024-02-21T01:18:29;94112.31;;;3.47;98.73
8294;BME280;4185;41.506;24.938;2024-02-21T01:20:56;94108.31;;;3.39;99.55
8294;BME280;4185;41.506;24.938;2024-02-21T01:23:23;94104.88;;;3.39;99.62
8294;BME280;4185;41.506;24.938;2024-02-21T01:25:49;94092.91;;;3.27;99.40
8294;BME280;4185;41.506;24.938;2024-02-21T01:28:18;94091.50;;;3.23;99.65
8294;BME280;4185;41.506;24.938;2024-02-21T01:30:44;94093.09;;;3.20;100.00
8294;BME280;4185;41.506;24.938;2024-02-21T01:33:11;94104.94;;;3.23;100.00
8294;BME280;4185;41.506;24.938;2024-02-21T01:35:38;94095.69;;;3.24;100.00
8294;BME280;4185;41.506;24.938;2024-02-21T01:38:04;94087.97;;;3.26;99.94
8294;BME280;4185;41.506;24.938;2024-02-21T01:40:31;94094.19;;;3.23;99.99
8294;BME280;4185;41.506;24.938;2024-02-21T01:42:58;94095.53;;;3.15;99.35
8294;BME280;4185;41.506;24.938;2024-02-21T01:45:26;94072.28;;;2.96;100.00
8294;BME280;4185;41.506;24.938;2024-02-21T01:47:52;94093.88;;;3.05;100.00
8294;BME280;4185;41.506;24.938;2024-02-21T01:50:20;94085.41;;;3.06;100.00
8294;BME280;4185;41.506;24.938;2024-02-21T01:52:49;94087.69;;;3.08;100.00
8294;BME280;4185;41.506;24.938;2024-02-21T01:55:16;94080.81;;;3.07;100.00
8294;BME280;4185;41.506;24.938;2024-02-21T01:57:44;94074.75;;;3.03;100.00
8294;BME280;4185;41.506;24.938;2024-02-21T02:00:13;94071.53;;;2.95;100.00
8294;BME280;4185;41.506;24.938;2024-02-21T02:02:42;94077.97;;;2.98;100.00
8294;BME280;4185;41.506;24.938;2024-02-21T02:05:10;94075.41;;;2.94;100.00
8294;BME280;4185;41.506;24.938;2024-02-21T02:07:37;94075.31;;;2.82;100.00
8294;BME280;4185;41.506;24.938;2024-02-21T02:10:05;94072.38;;;2.76;100.00
8294;BME280;4185;41.506;24.938;2024-02-21T02:12:32;94081.97;;;2.77;100.00
8294;BME280;4185;41.506;24.938;2024-02-21T02:14:59;94077.31;;;2.78;100.00
8294;BME280;4185;41.506;24.938;2024-02-21T02:17:26;94084.88;;;2.83;100.00
8294;BME280;4185;41.506;24.938;2024-02-21T02:19:54;94091.88;;;2.93;100.00
8294;BME280;4185;41.506;24.938;2024-02-21T02:22:23;94091.72;;;3.00;100.00
8294;BME280;4185;41.506;24.938;2024-02-21T02:24:55;94086.06;;;3.10;100.00
8294;BME280;4185;41.506;24.938;2024-02-21T02:27:22;94077.50;;;3.15;100.00
8294;BME280;4185;41.506;24.938;2024-02-21T02:29:49;94079.75;;;3.17;100.00
8294;BME280;4185;41.506;24.938;2024-02-21T02:32:17;94074.41;;;3.17;100.00
8294;BME280;4185;41.506;24.938;2024-02-21T02:34:44;94078.69;;;3.14;100.00
8294;BME280;4185;41.506;24.938;2024-02-21T02:37:11;94077.06;;;3.17;100.00
8294;BME280;4185;41.506;24.938;2024-02-21T02:39:37;94067.53;;;3.16;100.00
8294;BME280;4185;41.506;24.938;2024-02-21T02:42:06;94061.84;;;3.14;100.00
8294;BME280;4185;41.506;24.938;2024-02-21T02:44:32;94063.19;;;3.06;100.00
8294;BME280;4185;41.506;24.938;2024-02-21T02:46:59;94064.03;;;3.03;100.00
8294;BME280;4185;41.506;24.938;2024-02-21T02:49:26;94061.78;;;3.01;100.00
8294;BME280;4185;41.506;24.938;2024-02-21T02:51:52;94066.81;;;2.99;100.00
8294;BME280;4185;41.506;24.938;2024-02-21T02:54:19;94059.59;;;2.96;100.00
8294;BME280;4185;41.506;24.938;2024-02-21T02:56:46;94065.91;;;2.90;100.00
8294;BME280;4185;41.506;24.938;2024-02-21T02:59:14;94063.75;;;2.85;100.00
8294;BME280;4185;41.506;24.938;2024-02-21T03:01:41;94063.09;;;2.81;100.00
8294;BME280;4185;41.506;24.938;2024-02-21T03:04:07;94060.81;;;2.79;100.00
8294;BME280;4185;41.506;24.938;2024-02-21T03:06:35;94062.25;;;2.84;100.00
8294;BME280;4185;41.506;24.938;2024-02-21T03:09:02;94070.22;;;2.87;100.00
8294;BME280;4185;41.506;24.938;2024-02-21T03:11:33;94074.47;;;2.85;100.00
8294;BME280;4185;41.506;24.938;2024-02-21T03:14:00;94071.03;;;2.84;100.00
8294;BME280;4185;41.506;24.938;2024-02-21T03:16:28;94069.09;;;2.85;100.00
8294;BME280;4185;41.506;24.938;2024-02-21T03:18:55;94069.00;;;2.88;100.00
8294;BME280;4185;41.506;24.938;2024-02-21T03:21:22;94071.28;;;2.90;100.00
8294;BME280;4185;41.506;24.938;2024-02-21T03:23:48;94077.06;;;2.88;100.00
8294;BME280;4185;41.506;24.938;2024-02-21T03:26:15;94084.78;;;2.86;100.00
8294;BME280;4185;41.506;24.938;2024-02-21T03:28:42;94084.19;;;2.95;100.00
8294;BME280;4185;41.506;24.938;2024-02-21T03:31:10;94082.94;;;2.99;100.00
8294;BME280;4185;41.506;24.938;2024-02-21T03:33:39;94082.50;;;3.01;100.00
8294;BME280;4185;41.506;24.938;2024-02-21T03:36:06;94080.63;;;2.98;100.00
8294;BME280;4185;41.506;24.938;2024-02-21T03:38:32;94087.88;;;3.01;100.00
8294;BME280;4185;41.506;24.938;2024-02-21T03:40:59;94093.16;;;3.04;100.00
8294;BME280;4185;41.506;24.938;2024-02-21T03:43:26;94089.69;;;3.04;100.00
8294;BME280;4185;41.506;24.938;2024-02-21T03:45:52;94081.06;;;2.96;100.00
8294;BME280;4185;41.506;24.938;2024-02-21T03:48:19;94090.84;;;3.03;100.00
8294;BME280;4185;41.506;24.938;2024-02-21T03:50:47;94091.19;;;3.05;100.00
8294;BME280;4185;41.506;24.938;2024-02-21T03:53:14;94089.44;;;2.98;100.00
8294;BME280;4185;41.506;24.938;2024-02-21T03:55:41;94087.19;;;2.97;100.00
8294;BME280;4185;41.506;24.938;2024-02-21T03:58:07;94080.09;;;2.90;100.00
8294;BME280;4185;41.506;24.938;2024-02-21T04:00:34;94088.91;;;2.91;100.00
8294;BME280;4185;41.506;24.938;2024-02-21T04:03:01;94082.00;;;2.90;100.00
8294;BME280;4185;41.506;24.938;2024-02-21T04:05:28;94076.72;;;2.86;100.00
8294;BME280;4185;41.506;24.938;2024-02-21T04:07:56;94076.09;;;2.82;100.00
8294;BME280;4185;41.506;24.938;2024-02-21T04:10:22;94074.66;;;2.78;100.00
8294;BME280;4185;41.506;24.938;2024-02-21T04:12:49;94075.06;;;2.76;100.00
8294;BME280;4185;41.506;24.938;2024-02-21T04:15:17;94071.66;;;2.76;100.00
8294;BME280;4185;41.506;24.938;2024-02-21T04:17:44;94075.16;;;2.73;100.00
8294;BME280;4185;41.506;24.938;2024-02-21T04:20:14;94077.09;;;2.72;100.00
8294;BME280;4185;41.506;24.938;2024-02-21T04:22:42;94080.44;;;2.76;100.00
8294;BME280;4185;41.506;24.938;2024-02-21T04:25:11;94085.78;;;2.76;100.00
8294;BME280;4185;41.506;24.938;2024-02-21T04:27:38;94074.91;;;2.83;100.00
8294;BME280;4185;41.506;24.938;2024-02-21T04:30:07;94076.31;;;2.88;100.00
8294;BME280;4185;41.506;24.938;2024-02-21T04:32:34;94080.50;;;2.89;99.92
8294;BME280;4185;41.506;24.938;2024-02-21T04:35:01;94082.00;;;2.90;99.48
8294;BME280;4185;41.506;24.938;2024-02-21T04:37:28;94085.03;;;2.92;99.17
8294;BME280;4185;41.506;24.938;2024-02-21T04:39:55;94083.19;;;2.89;99.53
8294;BME280;4185;41.506;24.938;2024-02-21T04:42:23;94078.34;;;2.84;99.16
8294;BME280;4185;41.506;24.938;2024-02-21T04:44:50;94078.00;;;2.82;99.37
8294;BME280;4185;41.506;24.938;2024-02-21T04:47:16;94079.19;;;2.81;99.39
8294;BME280;4185;41.506;24.938;2024-02-21T04:49:45;94076.09;;;2.82;99.50
8294;BME280;4185;41.506;24.938;2024-02-21T04:52:12;94076.00;;;2.86;99.73
8294;BME280;4185;41.506;24.938;2024-02-21T04:54:38;94076.72;;;2.86;99.82
8294;BME280;4185;41.506;24.938;2024-02-21T04:57:05;94090.47;;;2.88;99.13
8294;BME280;4185;41.506;24.938;2024-02-21T04:59:33;94078.25;;;2.87;99.63
8294;BME280;4185;41.506;24.938;2024-02-21T05:02:01;94081.28;;;2.89;99.31
8294;BME280;4185;41.506;24.938;2024-02-21T05:04:28;94088.38;;;2.96;98.94
8294;BME280;4185;41.506;24.938;2024-02-21T05:06:54;94092.06;;;3.02;98.88
8294;BME280;4185;41.506;24.938;2024-02-21T05:09:21;94097.66;;;3.07;98.02
8294;BME280;4185;41.506;24.938;2024-02-21T05:11:48;94094.56;;;3.09;98.06
8294;BME280;4185;41.506;24.938;2024-02-21T05:14:14;94095.97;;;3.13;97.87
8294;BME280;4185;41.506;24.938;2024-02-21T05:16:42;94097.47;;;3.14;97.87
8294;BME280;4185;41.506;24.938;2024-02-21T05:19:09;94091.34;;;3.14;98.28
8294;BME280;4185;41.506;24.938;2024-02-21T05:21:36;94097.69;;;3.20;97.94
8294;BME280;4185;41.506;24.938;2024-02-21T05:24:03;94102.25;;;3.23;97.70
8294;BME280;4185;41.506;24.938;2024-02-21T05:26:30;94108.13;;;3.18;97.91
8294;BME280;4185;41.506;24.938;2024-02-21T05:28:57;94104.00;;;3.13;97.78
8294;BME280;4185;41.506;24.938;2024-02-21T05:31:24;94101.59;;;3.03;97.52
8294;BME280;4185;41.506;24.938;2024-02-21T05:33:53;94102.44;;;3.00;98.16
8294;BME280;4185;41.506;24.938;2024-02-21T05:36:19;94104.91;;;2.94;97.86
8294;BME280;4185;41.506;24.938;2024-02-21T05:38:46;94104.16;;;2.94;97.64
8294;BME280;4185;41.506;24.938;2024-02-21T05:41:13;94111.53;;;2.90;97.35
8294;BME280;4185;41.506;24.938;2024-02-21T05:43:40;94105.50;;;2.86;97.95
8294;BME280;4185;41.506;24.938;2024-02-21T05:46:07;94106.66;;;2.85;98.44
8294;BME280;4185;41.506;24.938;2024-02-21T05:48:33;94108.91;;;2.86;98.45
8294;BME280;4185;41.506;24.938;2024-02-21T05:51:03;94108.50;;;2.88;98.48
8294;BME280;4185;41.506;24.938;2024-02-21T05:53:30;94108.31;;;2.95;98.58
8294;BME280;4185;41.506;24.938;2024-02-21T05:55:56;94106.31;;;2.99;99.07
8294;BME280;4185;41.506;24.938;2024-02-21T05:58:23;94118.53;;;3.00;98.70
8294;BME280;4185;41.506;24.938;2024-02-21T06:00:50;94111.78;;;2.95;98.85
8294;BME280;4185;41.506;24.938;2024-02-21T06:03:16;94117.91;;;2.96;98.89
8294;BME280;4185;41.506;24.938;2024-02-21T06:05:43;94122.94;;;2.94;99.26
8294;BME280;4185;41.506;24.938;2024-02-21T06:08:11;94128.53;;;2.99;99.09
8294;BME280;4185;41.506;24.938;2024-02-21T06:10:38;94117.69;;;3.03;98.44
8294;BME280;4185;41.506;24.938;2024-02-21T06:13:05;94124.75;;;3.13;99.31
8294;BME280;4185;41.506;24.938;2024-02-21T06:15:31;94123.75;;;3.07;98.57
8294;BME280;4185;41.506;24.938;2024-02-21T06:17:58;94125.72;;;3.19;98.60
8294;BME280;4185;41.506;24.938;2024-02-21T06:20:25;94131.56;;;3.30;97.66
8294;BME280;4185;41.506;24.938;2024-02-21T06:22:51;94133.44;;;3.33;97.71
8294;BME280;4185;41.506;24.938;2024-02-21T06:25:19;94138.78;;;3.33;97.65
8294;BME280;4185;41.506;24.938;2024-02-21T06:27:46;94144.91;;;3.33;96.63
8294;BME280;4185;41.506;24.938;2024-02-21T06:30:13;94145.75;;;3.30;97.06
8294;BME280;4185;41.506;24.938;2024-02-21T06:32:40;94150.34;;;3.30;97.16
8294;BME280;4185;41.506;24.938;2024-02-21T06:35:07;94156.06;;;3.32;97.26
8294;BME280;4185;41.506;24.938;2024-02-21T06:37:33;94151.47;;;3.32;96.66
8294;BME280;4185;41.506;24.938;2024-02-21T06:40:00;94155.63;;;3.33;96.37
8294;BME280;4185;41.506;24.938;2024-02-21T06:42:28;94148.16;;;3.41;96.52
8294;BME280;4185;41.506;24.938;2024-02-21T06:44:55;94155.69;;;3.46;96.63
8294;BME280;4185;41.506;24.938;2024-02-21T06:47:22;94149.13;;;3.47;96.22
8294;BME280;4185;41.506;24.938;2024-02-21T06:49:49;94142.59;;;3.48;96.82
8294;BME280;4185;41.506;24.938;2024-02-21T06:52:17;94141.75;;;3.51;96.22
8294;BME280;4185;41.506;24.938;2024-02-21T06:54:45;94147.03;;;3.54;96.75
8294;BME280;4185;41.506;24.938;2024-02-21T06:57:12;94144.59;;;3.60;95.57
8294;BME280;4185;41.506;24.938;2024-02-21T06:59:42;94159.28;;;3.55;95.93
8294;BME280;4185;41.506;24.938;2024-02-21T07:02:09;94161.22;;;3.55;95.28
8294;BME280;4185;41.506;24.938;2024-02-21T07:04:37;94154.66;;;3.56;95.26
8294;BME280;4185;41.506;24.938;2024-02-21T07:07:03;94152.66;;;3.60;94.88
8294;BME280;4185;41.506;24.938;2024-02-21T07:09:30;94153.81;;;3.59;94.18
8294;BME280;4185;41.506;24.938;2024-02-21T07:11:57;94147.59;;;3.62;94.71
8294;BME280;4185;41.506;24.938;2024-02-21T07:14:24;94151.47;;;3.61;95.45
8294;BME280;4185;41.506;24.938;2024-02-21T07:16:52;94154.28;;;3.70;95.34
8294;BME280;4185;41.506;24.938;2024-02-21T07:19:19;94165.25;;;3.75;95.66
8294;BME280;4185;41.506;24.938;2024-02-21T07:21:46;94166.34;;;3.78;94.77
8294;BME280;4185;41.506;24.938;2024-02-21T07:24:13;94168.16;;;3.81;94.88
8294;BME280;4185;41.506;24.938;2024-02-21T07:26:41;94167.31;;;3.84;94.66
8294;BME280;4185;41.506;24.938;2024-02-21T07:29:09;94173.44;;;3.85;94.15
8294;BME280;4185;41.506;24.938;2024-02-21T07:31:39;94173.03;;;3.86;94.81
8294;BME280;4185;41.506;24.938;2024-02-21T07:34:07;94172.16;;;3.89;94.40
8294;BME280;4185;41.506;24.938;2024-02-21T07:36:34;94168.13;;;3.97;94.70
8294;BME280;4185;41.506;24.938;2024-02-21T07:39:02;94169.09;;;4.03;94.20
8294;BME280;4185;41.506;24.938;2024-02-21T07:41:30;94167.16;;;4.04;93.46
8294;BME280;4185;41.506;24.938;2024-02-21T07:43:56;94159.09;;;4.04;93.33
8294;BME280;4185;41.506;24.938;2024-02-21T07:46:23;94159.53;;;4.02;92.61
8294;BME280;4185;41.506;24.938;2024-02-21T07:48:50;94158.66;;;4.05;93.23
8294;BME280;4185;41.506;24.938;2024-02-21T07:51:18;94160.06;;;4.10;92.91
8294;BME280;4185;41.506;24.938;2024-02-21T07:53:45;94163.84;;;4.12;92.24
8294;BME280;4185;41.506;24.938;2024-02-21T07:56:13;94160.53;;;4.21;92.36
8294;BME280;4185;41.506;24.938;2024-02-21T07:58:40;94166.44;;;4.28;92.57
8294;BME280;4185;41.506;24.938;2024-02-21T08:01:07;94164.19;;;4.27;91.54
8294;BME280;4185;41.506;24.938;2024-02-21T08:03:34;94162.59;;;4.29;91.80
8294;BME280;4185;41.506;24.938;2024-02-21T08:06:01;94160.09;;;4.35;91.90
8294;BME280;4185;41.506;24.938;2024-02-21T08:08:29;94150.22;;;4.44;91.42
8294;BME280;4185;41.506;24.938;2024-02-21T08:10:56;94142.78;;;4.48;90.92
8294;BME280;4185;41.506;24.938;2024-02-21T08:13:22;94156.78;;;4.56;90.61
8294;BME280;4185;41.506;24.938;2024-02-21T08:15:49;94159.69;;;4.61;89.57
8294;BME280;4185;41.506;24.938;2024-02-21T08:18:16;94161.63;;;4.73;89.45
8294;BME280;4185;41.506;24.938;2024-02-21T08:20:42;94166.13;;;4.89;89.54
8294;BME280;4185;41.506;24.938;2024-02-21T08:23:09;94152.66;;;5.02;88.88
8294;BME280;4185;41.506;24.938;2024-02-21T08:25:37;94155.44;;;5.11;86.48
8294;BME280;4185;41.506;24.938;2024-02-21T08:28:05;94156.06;;;5.15;85.83
8294;BME280;4185;41.506;24.938;2024-02-21T08:30:32;94155.50;;;5.20;85.90
8294;BME280;4185;41.506;24.938;2024-02-21T08:32:58;94156.91;;;5.24;86.28
8294;BME280;4185;41.506;24.938;2024-02-21T08:35:25;94157.41;;;5.32;83.37
8294;BME280;4185;41.506;24.938;2024-02-21T08:37:52;94153.72;;;5.38;81.94
8294;BME280;4185;41.506;24.938;2024-02-21T08:40:19;94156.31;;;5.42;80.01
8294;BME280;4185;41.506;24.938;2024-02-21T08:42:48;94163.28;;;5.52;81.19
8294;BME280;4185;41.506;24.938;2024-02-21T08:45:15;94162.16;;;5.62;78.25
8294;BME280;4185;41.506;24.938;2024-02-21T08:47:42;94158.91;;;5.67;79.38
8294;BME280;4185;41.506;24.938;2024-02-21T08:50:10;94158.22;;;5.75;76.85
8294;BME280;4185;41.506;24.938;2024-02-21T08:52:36;94150.69;;;5.83;72.67
8294;BME280;4185;41.506;24.938;2024-02-21T08:55:04;94158.56;;;5.99;74.47
8294;BME280;4185;41.506;24.938;2024-02-21T08:57:30;94157.25;;;6.03;73.41
8294;BME280;4185;41.506;24.938;2024-02-21T09:00:04;94162.81;;;6.09;75.35
8294;BME280;4185;41.506;24.938;2024-02-21T09:02:35;94152.72;;;6.22;75.58
8294;BME280;4185;41.506;24.938;2024-02-21T09:05:03;94151.88;;;6.34;73.43
8294;BME280;4185;41.506;24.938;2024-02-21T09:07:31;94156.00;;;6.48;73.15
8294;BME280;4185;41.506;24.938;2024-02-21T09:09:58;94161.88;;;6.55;70.81
8294;BME280;4185;41.506;24.938;2024-02-21T09:12:25;94153.19;;;6.60;72.38
8294;BME280;4185;41.506;24.938;2024-02-21T09:14:51;94156.38;;;6.68;72.39
8294;BME280;4185;41.506;24.938;2024-02-21T09:17:19;94151.28;;;6.70;71.01
8294;BME280;4185;41.506;24.938;2024-02-21T09:19:46;94158.31;;;6.67;69.34
8294;BME280;4185;41.506;24.938;2024-02-21T09:22:13;94151.81;;;6.95;69.31
8294;BME280;4185;41.506;24.938;2024-02-21T09:24:40;94146.78;;;7.24;69.09
8294;BME280;4185;41.506;24.938;2024-02-21T09:27:07;94147.56;;;7.43;67.03
8294;BME280;4185;41.506;24.938;2024-02-21T09:29:34;94143.94;;;7.37;67.38
8294;BME280;4185;41.506;24.938;2024-02-21T09:32:01;94147.97;;;7.32;65.08
8294;BME280;4185;41.506;24.938;2024-02-21T09:34:30;94141.84;;;7.32;64.81
8294;BME280;4185;41.506;24.938;2024-02-21T09:36:57;94140.38;;;7.49;64.97
8294;BME280;4185;41.506;24.938;2024-02-21T09:39:24;94151.94;;;7.68;64.92
8294;BME280;4185;41.506;24.938;2024-02-21T09:41:53;94145.91;;;7.64;65.25
8294;BME280;4185;41.506;24.938;2024-02-21T09:44:21;94146.19;;;7.75;63.90
8294;BME280;4185;41.506;24.938;2024-02-21T09:46:56;94140.91;;;8.07;63.80
8294;BME280;4185;41.506;24.938;2024-02-21T09:49:31;94141.94;;;8.19;62.64
8294;BME280;4185;41.506;24.938;2024-02-21T09:52:00;94138.06;;;8.11;63.54
8294;BME280;4185;41.506;24.938;2024-02-21T09:54:29;94133.41;;;8.02;63.14
8294;BME280;4185;41.506;24.938;2024-02-21T09:56:56;94141.69;;;7.99;63.69
8294;BME280;4185;41.506;24.938;2024-02-21T09:59:23;94145.00;;;8.03;63.56
8294;BME280;4185;41.506;24.938;2024-02-21T10:01:50;94135.66;;;8.13;63.18
8294;BME280;4185;41.506;24.938;2024-02-21T10:04:17;94134.53;;;8.55;60.70
8294;BME280;4185;41.506;24.938;2024-02-21T10:06:45;94134.31;;;8.68;60.43
8294;BME280;4185;41.506;24.938;2024-02-21T10:09:20;94125.72;;;8.70;58.17
8294;BME280;4185;41.506;24.938;2024-02-21T10:11:48;94118.84;;;8.59;61.11
8294;BME280;4185;41.506;24.938;2024-02-21T10:14:15;94128.66;;;8.57;61.68
8294;BME280;4185;41.506;24.938;2024-02-21T10:16:42;94121.56;;;8.59;61.48
8294;BME280;4185;41.506;24.938;2024-02-21T10:19:16;94115.41;;;8.59;61.45
8294;BME280;4185;41.506;24.938;2024-02-21T10:21:58;94103.56;;;8.80;61.83
8294;BME280;4185;41.506;24.938;2024-02-21T10:24:26;94103.19;;;9.20;61.18
8294;BME280;4185;41.506;24.938;2024-02-21T10:26:59;94102.31;;;9.37;59.37
8294;BME280;4185;41.506;24.938;2024-02-21T10:29:26;94095.41;;;9.36;59.14
8294;BME280;4185;41.506;24.938;2024-02-21T10:32:03;94096.59;;;9.35;57.15
8294;BME280;4185;41.506;24.938;2024-02-21T10:34:30;94092.22;;;9.38;57.46
8294;BME280;4185;41.506;24.938;2024-02-21T10:37:01;94087.16;;;9.31;56.25
8294;BME280;4185;41.506;24.938;2024-02-21T10:39:29;94080.75;;;9.19;55.95
8294;BME280;4185;41.506;24.938;2024-02-21T10:41:59;94076.31;;;9.07;55.99
8294;BME280;4185;41.506;24.938;2024-02-21T10:44:28;94073.31;;;9.05;56.52
8294;BME280;4185;41.506;24.938;2024-02-21T10:46:55;94073.22;;;9.23;56.18
8294;BME280;4185;41.506;24.938;2024-02-21T10:49:23;94071.22;;;9.24;56.39
8294;BME280;4185;41.506;24.938;2024-02-21T10:51:54;94059.47;;;9.27;55.98
8294;BME280;4185;41.506;24.938;2024-02-21T10:54:34;94052.41;;;9.44;56.81
8294;BME280;4185;41.506;24.938;2024-02-21T10:57:05;94047.66;;;9.53;56.59
8294;BME280;4185;41.506;24.938;2024-02-21T10:59:34;94047.13;;;9.64;55.75
8294;BME280;4185;41.506;24.938;2024-02-21T11:02:01;94051.69;;;9.58;56.53
8294;BME280;4185;41.506;24.938;2024-02-21T11:04:28;94039.88;;;9.46;55.10
8294;BME280;4185;41.506;24.938;2024-02-21T11:06:57;94043.59;;;9.34;57.30
8294;BME280;4185;41.506;24.938;2024-02-21T11:09:31;94045.19;;;9.26;56.88
8294;BME280;4185;41.506;24.938;2024-02-21T11:11:58;94041.34;;;9.18;57.42
8294;BME280;4185;41.506;24.938;2024-02-21T11:14:27;94046.34;;;9.11;56.73
8294;BME280;4185;41.506;24.938;2024-02-21T11:16:54;94045.50;;;9.05;57.99
8294;BME280;4185;41.506;24.938;2024-02-21T11:19:24;94036.00;;;9.00;58.70
8294;BME280;4185;41.506;24.938;2024-02-21T11:21:52;94030.59;;;9.00;58.53
8294;BME280;4185;41.506;24.938;2024-02-21T11:24:38;94043.75;;;9.16;58.31
8294;BME280;4185;41.506;24.938;2024-02-21T11:27:09;94036.75;;;9.24;57.57
8294;BME280;4185;41.506;24.938;2024-02-21T11:29:40;94029.94;;;9.29;58.57
8294;BME280;4185;41.506;24.938;2024-02-21T11:32:09;94043.13;;;9.36;58.28
8294;BME280;4185;41.506;24.938;2024-02-21T11:34:36;94036.59;;;9.42;59.13
8294;BME280;4185;41.506;24.938;2024-02-21T11:37:12;94038.66;;;9.33;59.62
8294;BME280;4185;41.506;24.938;2024-02-21T11:39:41;94035.28;;;9.38;60.54
8294;BME280;4185;41.506;24.938;2024-02-21T11:42:08;94022.50;;;9.38;59.82
8294;BME280;4185;41.506;24.938;2024-02-21T11:44:36;94033.16;;;9.42;60.47
8294;BME280;4185;41.506;24.938;2024-02-21T11:47:05;94025.75;;;9.42;59.92
8294;BME280;4185;41.506;24.938;2024-02-21T11:49:37;94023.41;;;9.35;60.29
8294;BME280;4185;41.506;24.938;2024-02-21T11:52:05;94020.97;;;9.23;60.01
8294;BME280;4185;41.506;24.938;2024-02-21T11:54:32;94020.56;;;9.15;60.97
8294;BME280;4185;41.506;24.938;2024-02-21T11:57:01;94019.72;;;9.09;61.66
8294;BME280;4185;41.506;24.938;2024-02-21T11:59:30;94021.28;;;9.01;61.21
8294;BME280;4185;41.506;24.938;2024-02-21T12:01:58;94019.22;;;8.96;61.41
8294;BME280;4185;41.506;24.938;2024-02-21T12:04:25;94012.63;;;8.88;61.45
8294;BME280;4185;41.506;24.938;2024-02-21T12:06:52;94021.53;;;8.80;61.59
8294;BME280;4185;41.506;24.938;2024-02-21T12:09:19;94022.59;;;8.82;62.16
8294;BME280;4185;41.506;24.938;2024-02-21T12:11:57;94015.78;;;8.87;61.86
8294;BME280;4185;41.506;24.938;2024-02-21T12:14:25;94015.78;;;8.87;61.86
8294;BME280;4185;41.506;24.938;2024-02-21T12:16:53;94022.31;;;8.80;61.65
8294;BME280;4185;41.506;24.938;2024-02-21T12:19:20;94014.81;;;8.75;61.73
8294;BME280;4185;41.506;24.938;2024-02-21T12:21:48;94019.31;;;8.78;62.25
8294;BME280;4185;41.506;24.938;2024-02-21T12:24:17;94014.53;;;8.73;61.79
8294;BME280;4185;41.506;24.938;2024-02-21T12:26:45;94006.41;;;8.73;62.38
8294;BME280;4185;41.506;24.938;2024-02-21T12:29:12;94017.81;;;8.77;62.86
8294;BME280;4185;41.506;24.938;2024-02-21T12:31:40;93998.56;;;8.75;62.69
8294;BME280;4185;41.506;24.938;2024-02-21T12:34:07;94014.81;;;8.75;62.12
8294;BME280;4185;41.506;24.938;2024-02-21T12:36:36;94005.84;;;8.69;62.04
8294;BME280;4185;41.506;24.938;2024-02-21T12:39:02;94009.63;;;8.62;61.98
8294;BME280;4185;41.506;24.938;2024-02-21T12:41:30;94008.75;;;8.56;63.35
8294;BME280;4185;41.506;24.938;2024-02-21T12:43:58;94011.75;;;8.58;63.89
8294;BME280;4185;41.506;24.938;2024-02-21T12:46:25;94008.94;;;8.53;64.24
8294;BME280;4185;41.506;24.938;2024-02-21T12:48:53;94013.41;;;8.56;64.05
8294;BME280;4185;41.506;24.938;2024-02-21T12:51:20;94018.84;;;8.56;64.23
8294;BME280;4185;41.506;24.938;2024-02-21T12:53:47;94011.16;;;8.54;64.53
8294;BME280;4185;41.506;24.938;2024-02-21T12:56:15;94013.25;;;8.59;65.02
8294;BME280;4185;41.506;24.938;2024-02-21T12:58:41;94002.41;;;8.59;64.78
8294;BME280;4185;41.506;24.938;2024-02-21T13:01:08;94012.91;;;8.67;64.84
8294;BME280;4185;41.506;24.938;2024-02-21T13:03:35;94007.31;;;8.70;65.16
8294;BME280;4185;41.506;24.938;2024-02-21T13:06:05;94006.66;;;8.84;64.64
8294;BME280;4185;41.506;24.938;2024-02-21T13:08:32;93999.22;;;9.08;63.54
8294;BME280;4185;41.506;24.938;2024-02-21T13:10:59;94000.94;;;9.20;63.49
8294;BME280;4185;41.506;24.938;2024-02-21T13:13:26;94009.81;;;9.06;64.25
8294;BME280;4185;41.506;24.938;2024-02-21T13:15:53;94005.56;;;9.05;64.11
8294;BME280;4185;41.506;24.938;2024-02-21T13:18:20;94006.41;;;9.35;62.94
8294;BME280;4185;41.506;24.938;2024-02-21T13:20:47;93999.16;;;9.55;62.29
8294;BME280;4185;41.506;24.938;2024-02-21T13:23:15;94004.47;;;9.64;61.51